createdAt,value
2018-05-06T00:01:00.668Z,17.50
2018-05-06T00:03:28.940Z,17.50
2018-05-06T00:05:57.253Z,17.40
2018-05-06T00:08:25.527Z,17.30
2018-05-06T00:10:53.694Z,17.30
2018-05-06T00:13:22.699Z,17.40
2018-05-06T00:15:50.968Z,17.40
2018-05-06T00:18:19.176Z,17.30
2018-05-06T00:20:48.832Z,17.30
2018-05-06T00:23:17.943Z,17.20
2018-05-06T00:25:46.251Z,17.20
2018-05-06T00:28:14.442Z,17.20
2018-05-06T00:30:43.406Z,17.20
2018-05-06T00:33:12.576Z,17.20
2018-05-06T00:35:40.882Z,17.20
2018-05-06T00:38:09.840Z,17.20
2018-05-06T00:40:38.050Z,17.20
2018-05-06T00:43:06.499Z,17.10
2018-05-06T00:45:34.706Z,17.10
2018-05-06T00:48:03.665Z,17.10
2018-05-06T00:50:31.866Z,17.10
2018-05-06T00:53:00.142Z,17.10
2018-05-06T00:55:29.190Z,17.10
2018-05-06T00:57:58.079Z,17.10
2018-05-06T01:00:26.298Z,17.10
2018-05-06T01:02:54.627Z,17.00
2018-05-06T01:05:22.851Z,17.00
2018-05-06T01:07:51.038Z,17.00
2018-05-06T01:10:20.006Z,17.00
2018-05-06T01:12:48.243Z,17.00
2018-05-06T01:15:16.467Z,17.00
2018-05-06T01:17:44.654Z,17.00
2018-05-06T01:20:13.734Z,16.80
2018-05-06T01:22:42.063Z,16.80
2018-05-06T01:25:10.274Z,16.80
2018-05-06T01:27:38.470Z,16.80
2018-05-06T01:30:07.454Z,16.80
2018-05-06T01:32:36.414Z,16.80
2018-05-06T01:35:04.742Z,16.80
2018-05-06T01:37:33.720Z,16.70
2018-05-06T01:40:01.924Z,16.70
2018-05-06T01:42:30.220Z,16.80
2018-05-06T01:44:58.451Z,16.70
2018-05-06T01:47:27.450Z,16.70
2018-05-06T01:49:55.654Z,16.70
2018-05-06T01:52:23.982Z,16.70
2018-05-06T01:54:52.175Z,16.60
2018-05-06T01:57:20.826Z,16.70
2018-05-06T01:59:49.027Z,16.70
2018-05-06T02:02:18.105Z,16.60
2018-05-06T02:04:46.300Z,16.60
2018-05-06T02:07:15.281Z,16.60
2018-05-06T02:09:44.243Z,16.60
2018-05-06T02:12:12.535Z,16.60
2018-05-06T02:14:40.726Z,16.60
2018-05-06T02:17:09.024Z,16.50
2018-05-06T02:19:37.982Z,16.50
2018-05-06T02:22:06.382Z,16.50
2018-05-06T02:24:35.959Z,16.40
2018-05-06T02:27:04.267Z,16.40
2018-05-06T02:29:33.225Z,16.50
2018-05-06T02:32:01.436Z,16.40
2018-05-06T02:34:30.400Z,16.50
2018-05-06T02:36:58.611Z,16.40
2018-05-06T02:39:27.609Z,16.40
2018-05-06T02:41:56.584Z,16.40
2018-05-06T02:44:25.547Z,16.20
2018-05-06T02:46:53.779Z,16.20
2018-05-06T02:49:22.741Z,16.20
2018-05-06T02:51:51.003Z,16.10
2018-05-06T02:54:19.199Z,16.20
2018-05-06T02:56:47.498Z,16.10
2018-05-06T02:59:16.442Z,16.00
2018-05-06T03:01:44.698Z,16.00
2018-05-06T03:04:12.878Z,16.00
2018-05-06T03:06:41.084Z,16.00
2018-05-06T03:09:09.291Z,16.00
2018-05-06T03:11:37.522Z,16.00
2018-05-06T03:14:05.732Z,15.90
2018-05-06T03:16:34.690Z,15.90
2018-05-06T03:19:02.906Z,15.90
2018-05-06T03:21:31.960Z,15.90
2018-05-06T03:24:00.174Z,15.90
2018-05-06T03:26:29.130Z,15.80
2018-05-06T03:28:57.346Z,15.80
2018-05-06T03:31:25.609Z,15.70
2018-05-06T03:33:54.591Z,15.60
2018-05-06T03:36:22.774Z,15.50
2018-05-06T03:38:51.754Z,15.50
2018-05-06T03:41:20.074Z,15.50
2018-05-06T03:43:48.286Z,15.50
2018-05-06T03:46:16.465Z,15.50
2018-05-06T03:48:44.715Z,15.60
2018-05-06T03:51:13.730Z,15.60
2018-05-06T03:53:41.943Z,15.60
2018-05-06T03:59:37.562Z,15.30
2018-05-06T04:05:17.734Z,15.40
2018-05-06T04:07:45.941Z,15.40
2018-05-06T04:10:14.895Z,15.50
2018-05-06T04:12:43.284Z,15.50
2018-05-06T04:15:11.498Z,15.40
2018-05-06T04:17:39.688Z,15.50
2018-05-06T04:20:08.069Z,15.50
2018-05-06T04:22:36.408Z,15.50
2018-05-06T04:25:05.380Z,15.50
2018-05-06T04:27:33.578Z,15.40
2018-05-06T04:30:01.779Z,15.50
2018-05-06T04:32:30.090Z,15.40
2018-05-06T04:34:58.295Z,15.50
2018-05-06T04:37:26.578Z,15.50
2018-05-06T04:39:54.715Z,15.50
2018-05-06T04:42:22.904Z,15.50
2018-05-06T04:44:51.143Z,15.40
2018-05-06T04:47:20.066Z,15.40
2018-05-06T04:49:48.293Z,15.40
2018-05-06T04:52:16.541Z,15.50
2018-05-06T04:54:44.758Z,15.40
2018-05-06T04:57:12.994Z,15.50
2018-05-06T04:59:41.198Z,15.60
2018-05-06T05:02:09.411Z,15.70
2018-05-06T05:04:37.637Z,15.80
2018-05-06T05:07:06.590Z,15.90
2018-05-06T05:09:34.817Z,15.90
2018-05-06T05:12:03.143Z,15.90
2018-05-06T05:14:31.363Z,15.90
2018-05-06T05:17:00.310Z,15.90
2018-05-06T05:19:28.546Z,15.90
2018-05-06T05:21:56.787Z,15.90
2018-05-06T05:24:25.775Z,16.00
2018-05-06T05:26:54.749Z,16.00
2018-05-06T05:29:22.958Z,16.00
2018-05-06T05:31:51.278Z,16.00
2018-05-06T05:34:19.529Z,16.00
2018-05-06T05:36:48.462Z,16.10
2018-05-06T05:39:16.766Z,16.10
2018-05-06T05:41:45.053Z,16.10
2018-05-06T05:44:14.015Z,16.30
2018-05-06T05:46:42.230Z,16.30
2018-05-06T05:49:11.190Z,16.50
2018-05-06T05:51:39.590Z,16.50
2018-05-06T05:54:08.554Z,16.70
2018-05-06T05:56:36.766Z,16.70
2018-05-06T05:59:05.725Z,16.70
2018-05-06T06:01:34.042Z,16.70
2018-05-06T06:04:02.227Z,16.70
2018-05-06T06:06:30.439Z,16.70
2018-05-06T06:08:58.648Z,16.80
2018-05-06T06:11:26.916Z,16.80
2018-05-06T06:13:55.886Z,16.90
2018-05-06T06:16:24.097Z,16.90
2018-05-06T06:18:53.067Z,17.20
2018-05-06T06:21:21.360Z,17.10
2018-05-06T06:23:49.637Z,17.10
2018-05-06T06:26:17.845Z,17.20
2018-05-06T06:28:46.088Z,17.40
2018-05-06T06:31:14.346Z,17.20
2018-05-06T06:33:42.561Z,16.90
2018-05-06T06:36:11.538Z,17.00
2018-05-06T06:38:39.815Z,17.00
2018-05-06T06:41:08.791Z,17.00
2018-05-06T06:43:38.486Z,17.10
2018-05-06T06:46:06.705Z,17.10
2018-05-06T06:48:35.658Z,17.20
2018-05-06T06:51:03.938Z,17.20
2018-05-06T06:53:32.150Z,17.20
2018-05-06T06:56:01.227Z,17.10
2018-05-06T06:58:30.192Z,17.30
2018-05-06T07:00:59.970Z,17.40
2018-05-06T07:03:28.166Z,17.40
2018-05-06T07:05:56.369Z,17.60
2018-05-06T07:08:24.578Z,17.60
2018-05-06T07:10:52.922Z,18.40
2018-05-06T07:13:21.158Z,18.60
2018-05-06T07:15:49.362Z,17.80
2018-05-06T07:18:18.158Z,17.80
2018-05-06T07:20:46.396Z,18.10
2018-05-06T07:23:14.618Z,17.80
2018-05-06T07:25:42.799Z,17.80
2018-05-06T07:28:11.032Z,17.50
2018-05-06T07:30:39.231Z,17.70
2018-05-06T07:33:09.890Z,18.00
2018-05-06T07:35:38.159Z,18.00
2018-05-06T07:38:06.361Z,18.10
2018-05-06T07:40:34.546Z,18.40
2018-05-06T07:43:02.762Z,18.20
2018-05-06T07:45:30.954Z,18.30
2018-05-06T07:47:59.159Z,18.60
2018-05-06T07:50:27.471Z,19.20
2018-05-06T07:52:55.683Z,19.30
2018-05-06T07:55:23.891Z,19.30
2018-05-06T07:57:52.139Z,19.50
2018-05-06T08:00:20.415Z,19.50
2018-05-06T08:02:49.412Z,19.70
2018-05-06T08:05:17.907Z,19.70
2018-05-06T08:07:46.699Z,20.00
2018-05-06T08:10:15.085Z,19.80
2018-05-06T08:12:43.307Z,19.60
2018-05-06T08:15:12.303Z,19.80
2018-05-06T08:17:40.553Z,19.80
2018-05-06T08:20:08.839Z,19.90
2018-05-06T08:22:38.943Z,19.90
2018-05-06T08:25:07.198Z,20.20
2018-05-06T08:27:35.415Z,20.40
2018-05-06T08:30:03.695Z,20.50
2018-05-06T08:32:31.887Z,20.40
2018-05-06T08:35:00.115Z,20.60
2018-05-06T08:37:28.342Z,20.70
2018-05-06T08:39:56.595Z,20.70
2018-05-06T08:42:24.779Z,20.50
2018-05-06T08:44:53.010Z,20.50
2018-05-06T08:47:21.494Z,20.50
2018-05-06T08:49:49.783Z,20.40
2018-05-06T08:52:17.970Z,20.40
2018-05-06T08:54:46.182Z,20.70
2018-05-06T08:57:14.436Z,20.90
2018-05-06T08:59:42.706Z,21.20
2018-05-06T09:02:10.893Z,21.20
2018-05-06T09:04:39.874Z,21.10
2018-05-06T09:07:08.834Z,21.40
2018-05-06T09:09:37.114Z,21.40
2018-05-06T09:12:05.302Z,21.50
2018-05-06T09:14:34.104Z,21.50
2018-05-06T09:17:03.379Z,22.00
2018-05-06T09:19:31.658Z,22.00
2018-05-06T09:21:59.928Z,22.00
2018-05-06T09:24:29.654Z,21.50
2018-05-06T09:26:58.650Z,21.80
2018-05-06T09:29:27.122Z,21.90
2018-05-06T09:31:55.314Z,22.10
2018-05-06T09:34:24.286Z,21.80
2018-05-06T09:36:52.479Z,21.80
2018-05-06T09:39:21.859Z,21.70
2018-05-06T09:41:50.162Z,21.60
2018-05-06T09:44:18.372Z,22.10
2018-05-06T09:46:46.550Z,22.10
2018-05-06T09:49:14.842Z,22.10
2018-05-06T09:51:43.044Z,22.20
2018-05-06T09:54:11.227Z,22.10
2018-05-06T09:56:39.422Z,22.40
2018-05-06T09:59:07.729Z,22.50
2018-05-06T10:01:35.931Z,22.90
2018-05-06T10:04:04.125Z,23.00
2018-05-06T10:06:32.326Z,22.80
2018-05-06T10:09:01.113Z,23.10
2018-05-06T10:11:29.372Z,23.50
2018-05-06T10:13:57.723Z,23.40
2018-05-06T10:16:25.909Z,23.20
2018-05-06T10:18:54.307Z,23.60
2018-05-06T10:21:22.523Z,23.60
2018-05-06T10:23:50.754Z,23.90
2018-05-06T10:26:18.949Z,24.10
2018-05-06T10:28:47.308Z,24.00
2018-05-06T10:31:15.523Z,24.10
2018-05-06T10:33:43.702Z,24.30
2018-05-06T10:36:11.927Z,24.20
2018-05-06T10:38:40.158Z,24.30
2018-05-06T10:41:08.360Z,24.30
2018-05-06T10:43:36.551Z,24.30
2018-05-06T10:46:04.834Z,24.30
2018-05-06T10:48:33.213Z,24.30
2018-05-06T10:51:02.002Z,24.20
2018-05-06T10:53:30.171Z,24.80
2018-05-06T10:55:59.874Z,24.90
2018-05-06T10:58:29.509Z,24.90
2018-05-06T11:00:58.077Z,24.80
2018-05-06T11:03:27.271Z,25.10
2018-05-06T11:05:55.789Z,25.30
2018-05-06T11:08:25.252Z,25.30
2018-05-06T11:10:53.571Z,25.30
2018-05-06T11:13:22.010Z,25.20
2018-05-06T11:15:51.030Z,25.20
2018-05-06T11:18:19.819Z,25.60
2018-05-06T11:20:48.860Z,26.10
2018-05-06T11:23:17.872Z,26.10
2018-05-06T11:25:47.048Z,26.30
2018-05-06T11:28:15.298Z,26.30
2018-05-06T11:30:43.471Z,26.30
2018-05-06T11:33:11.683Z,25.90
2018-05-06T11:35:40.281Z,26.00
2018-05-06T11:38:09.992Z,25.90
2018-05-06T11:40:38.664Z,25.80
2018-05-06T11:43:07.271Z,26.40
2018-05-06T11:45:36.648Z,26.40
2018-05-06T11:48:05.489Z,26.40
2018-05-06T11:50:33.642Z,26.30
2018-05-06T11:53:02.190Z,26.50
2018-05-06T11:55:30.396Z,26.50
2018-05-06T11:57:58.670Z,26.50
2018-05-06T12:00:26.871Z,26.70
2018-05-06T12:02:55.078Z,26.70
2018-05-06T12:05:23.350Z,26.70
2018-05-06T12:07:52.351Z,27.00
2018-05-06T12:10:20.553Z,26.80
2018-05-06T12:12:49.512Z,26.90
2018-05-06T12:15:17.707Z,26.90
2018-05-06T12:17:45.950Z,26.80
2018-05-06T12:20:14.135Z,27.10
2018-05-06T12:22:42.326Z,26.80
2018-05-06T12:25:11.298Z,27.00
2018-05-06T12:27:39.738Z,27.00
2018-05-06T12:30:07.959Z,27.20
2018-05-06T12:32:37.038Z,27.10
2018-05-06T12:35:05.309Z,27.10
2018-05-06T12:37:33.526Z,27.10
2018-05-06T12:40:01.978Z,26.90
2018-05-06T12:42:30.257Z,27.10
2018-05-06T12:44:58.477Z,27.10
2018-05-06T12:47:26.726Z,27.10
2018-05-06T12:49:55.694Z,27.60
2018-05-06T12:52:24.646Z,27.00
2018-05-06T12:54:52.838Z,27.00
2018-05-06T12:57:21.159Z,27.30
2018-05-06T12:59:49.739Z,27.30
2018-05-06T13:02:18.693Z,27.00
2018-05-06T13:04:46.886Z,27.00
2018-05-06T13:07:15.194Z,27.10
2018-05-06T13:09:43.395Z,26.80
2018-05-06T13:12:11.582Z,26.70
2018-05-06T13:14:39.782Z,26.70
2018-05-06T13:17:07.990Z,26.80
2018-05-06T13:19:36.959Z,27.10
2018-05-06T13:22:05.233Z,27.00
2018-05-06T13:24:33.433Z,27.20
2018-05-06T13:27:01.719Z,27.10
2018-05-06T13:29:29.910Z,26.70
2018-05-06T13:31:58.088Z,26.50
2018-05-06T13:34:26.301Z,26.70
2018-05-06T13:36:54.514Z,27.00
2018-05-06T13:39:23.471Z,26.90
2018-05-06T13:41:51.639Z,26.90
2018-05-06T13:44:19.834Z,27.00
2018-05-06T13:46:48.149Z,26.90
2018-05-06T13:49:16.362Z,26.80
2018-05-06T13:51:44.555Z,27.10
2018-05-06T13:54:12.718Z,27.20
2018-05-06T13:56:40.970Z,26.80
2018-05-06T13:59:09.143Z,26.50
2018-05-06T14:01:37.364Z,26.60
2018-05-06T14:04:06.306Z,26.30
2018-05-06T14:06:34.756Z,26.30
2018-05-06T14:09:03.098Z,26.60
2018-05-06T14:11:31.283Z,26.80
2018-05-06T14:14:00.214Z,26.70
2018-05-06T14:16:28.530Z,26.70
2018-05-06T14:18:56.888Z,26.40
2018-05-06T14:21:25.191Z,26.00
2018-05-06T14:23:53.415Z,26.50
2018-05-06T14:26:21.702Z,27.00
2018-05-06T14:28:49.922Z,26.80
2018-05-06T14:31:18.104Z,26.60
2018-05-06T14:33:47.055Z,26.80
2018-05-06T14:36:15.318Z,26.80
2018-05-06T14:38:43.502Z,27.00
2018-05-06T14:41:11.686Z,26.70
2018-05-06T14:43:39.863Z,26.70
2018-05-06T14:49:03.366Z,26.50
2018-05-06T14:51:31.566Z,26.10
2018-05-06T14:53:59.740Z,26.20
2018-05-06T14:56:28.704Z,26.50
2018-05-06T14:58:56.862Z,26.40
2018-05-06T15:01:25.051Z,26.60
2018-05-06T15:03:53.227Z,26.20
2018-05-06T15:06:21.398Z,26.10
2018-05-06T15:08:49.596Z,26.20
2018-05-06T15:11:17.758Z,26.30
2018-05-06T15:13:45.947Z,26.40
2018-05-06T15:16:14.153Z,26.30
2018-05-06T15:18:42.334Z,26.20
2018-05-06T15:21:10.512Z,25.90
2018-05-06T15:23:38.690Z,25.80
2018-05-06T15:26:06.962Z,25.80
2018-05-06T15:28:35.162Z,25.90
2018-05-06T15:31:03.334Z,25.70
2018-05-06T15:33:31.533Z,25.60
2018-05-06T15:35:59.726Z,25.70
2018-05-06T15:38:29.295Z,25.70
2018-05-06T15:40:57.467Z,25.60
2018-05-06T15:43:25.659Z,25.70
2018-05-06T15:45:53.938Z,25.60
2018-05-06T15:48:22.114Z,25.30
2018-05-06T15:50:50.283Z,25.50
2018-05-06T15:53:18.492Z,25.20
2018-05-06T15:55:46.762Z,25.10
2018-05-06T15:58:15.716Z,25.30
2018-05-06T16:00:43.885Z,25.30
2018-05-06T16:03:24.890Z,25.00
2018-05-06T16:05:53.171Z,24.90
2018-05-06T16:08:22.126Z,24.90
2018-05-06T16:10:50.294Z,24.90
2018-05-06T16:13:18.479Z,24.90
2018-05-06T16:15:46.707Z,24.80
2018-05-06T16:18:14.898Z,24.80
2018-05-06T16:20:43.130Z,24.80
2018-05-06T16:23:12.104Z,24.80
2018-05-06T16:25:41.090Z,24.70
2018-05-06T16:28:09.261Z,24.60
2018-05-06T16:30:37.475Z,24.60
2018-05-06T16:33:06.741Z,24.50
2018-05-06T16:35:34.986Z,24.40
2018-05-06T16:38:03.163Z,24.40
2018-05-06T16:40:31.362Z,24.50
2018-05-06T16:42:59.535Z,24.40
2018-05-06T16:45:27.849Z,24.30
2018-05-06T16:47:56.038Z,24.30
2018-05-06T16:50:24.238Z,24.40
2018-05-06T16:52:52.410Z,24.30
2018-05-06T16:55:20.679Z,24.30
2018-05-06T16:57:48.900Z,24.20
2018-05-06T17:00:17.095Z,24.10
2018-05-06T17:02:46.035Z,24.20
2018-05-06T17:05:14.270Z,24.10
2018-05-06T17:07:42.538Z,24.00
2018-05-06T17:10:11.506Z,24.00
2018-05-06T17:12:39.679Z,23.90
2018-05-06T17:15:07.919Z,24.00
2018-05-06T17:17:36.086Z,23.80
2018-05-06T17:20:11.903Z,23.80
2018-05-06T17:22:40.072Z,23.70
2018-05-06T17:25:08.296Z,23.50
2018-05-06T17:27:36.471Z,23.50
2018-05-06T17:30:04.828Z,23.40
2018-05-06T17:32:33.793Z,23.30
2018-05-06T17:35:02.053Z,23.30
2018-05-06T17:37:30.222Z,23.40
2018-05-06T17:39:58.422Z,23.20
2018-05-06T17:42:26.613Z,23.20
2018-05-06T17:44:54.960Z,23.10
2018-05-06T17:47:23.146Z,23.10
2018-05-06T17:49:52.078Z,22.90
2018-05-06T17:52:20.278Z,22.90
2018-05-06T17:54:48.523Z,22.90
2018-05-06T17:57:16.711Z,22.90
2018-05-06T17:59:44.882Z,22.90
2018-05-06T18:02:13.161Z,22.80
2018-05-06T18:04:41.555Z,22.70
2018-05-06T18:07:09.753Z,22.70
2018-05-06T18:09:37.926Z,22.60
2018-05-06T18:12:06.142Z,22.50
2018-05-06T18:14:34.310Z,22.50
2018-05-06T18:17:02.494Z,22.40
2018-05-06T18:19:30.858Z,22.30
2018-05-06T18:21:59.807Z,22.30
2018-05-06T18:24:27.990Z,22.20
2018-05-06T18:26:56.190Z,22.20
2018-05-06T18:29:25.138Z,21.80
2018-05-06T18:31:53.346Z,21.80
2018-05-06T18:34:21.682Z,21.50
2018-05-06T18:36:49.878Z,21.30
2018-05-06T18:39:18.070Z,21.30
2018-05-06T18:41:46.260Z,21.20
2018-05-06T18:44:14.487Z,21.20
2018-05-06T18:46:42.732Z,21.20
2018-05-06T18:49:10.864Z,20.90
2018-05-06T18:51:39.096Z,20.40
2018-05-06T18:54:07.356Z,20.40
2018-05-06T18:56:35.582Z,20.30
2018-05-06T18:59:03.779Z,20.30
2018-05-06T19:01:32.720Z,19.70
2018-05-06T19:04:00.992Z,19.70
2018-05-06T19:06:29.162Z,19.40
2018-05-06T19:08:57.954Z,19.50
2018-05-06T19:11:26.127Z,19.30
2018-05-06T19:13:54.443Z,19.20
2018-05-06T19:16:22.639Z,19.40
2018-05-06T19:18:50.834Z,19.20
2018-05-06T19:21:19.037Z,18.90
2018-05-06T19:23:47.546Z,19.00
2018-05-06T19:26:17.264Z,19.00
2018-05-06T19:28:45.447Z,19.00
2018-05-06T19:31:14.411Z,18.70
2018-05-06T19:33:42.762Z,18.70
2018-05-06T19:36:10.984Z,18.50
2018-05-06T19:38:39.256Z,18.50
2018-05-06T19:41:07.438Z,18.50
2018-05-06T19:43:36.638Z,18.50
2018-05-06T19:46:04.825Z,18.50
2018-05-06T19:48:33.790Z,18.60
2018-05-06T19:51:02.077Z,18.60
2018-05-06T19:53:31.180Z,18.10
2018-05-06T19:56:00.131Z,18.00
2018-05-06T19:58:28.333Z,18.00
2018-05-06T20:00:58.007Z,18.10
2018-05-06T20:03:26.288Z,18.20
2018-05-06T20:05:54.463Z,18.00
2018-05-06T20:08:22.646Z,17.80
2018-05-06T20:10:50.814Z,17.80
2018-05-06T20:13:19.183Z,18.00
2018-05-06T20:15:47.708Z,18.10
2018-05-06T20:18:15.898Z,17.80
2018-05-06T20:20:44.834Z,18.20
2018-05-06T20:23:13.122Z,18.10
2018-05-06T20:25:41.321Z,18.30
2018-05-06T20:28:11.015Z,18.60
2018-05-06T20:30:39.178Z,18.60
2018-05-06T20:33:08.194Z,18.90
2018-05-06T20:35:36.366Z,18.90
2018-05-06T20:38:04.574Z,18.90
2018-05-06T20:40:33.550Z,19.10
2018-05-06T20:43:01.754Z,19.10
2018-05-06T20:45:29.952Z,19.10
2018-05-06T20:47:58.130Z,19.00
2018-05-06T20:50:26.338Z,18.90
2018-05-06T20:52:54.557Z,19.00
2018-05-06T20:55:22.830Z,19.00
2018-05-06T20:57:50.919Z,19.10
2018-05-06T21:00:19.115Z,19.10
2018-05-06T21:02:47.457Z,19.10
2018-05-06T21:05:15.722Z,19.10
2018-05-06T21:07:43.840Z,19.10
2018-05-06T21:10:12.043Z,19.10
2018-05-06T21:12:40.253Z,18.90
2018-05-06T21:15:08.463Z,19.00
2018-05-06T21:17:36.639Z,19.10
2018-05-06T21:20:04.827Z,19.00
2018-05-06T21:22:33.018Z,19.00
2018-05-06T21:25:02.004Z,18.90
2018-05-06T21:27:30.285Z,18.90
2018-05-06T21:29:58.467Z,18.80
2018-05-06T21:32:26.662Z,18.70
2018-05-06T21:34:55.614Z,18.70
2018-05-06T21:37:24.203Z,18.70
2018-05-06T21:39:52.387Z,18.70
2018-05-06T21:42:20.560Z,18.70
2018-05-06T21:44:50.327Z,18.70
2018-05-06T21:47:18.474Z,18.70
2018-05-06T21:49:46.688Z,18.70
2018-05-06T21:52:14.945Z,18.80
2018-05-06T21:54:43.143Z,18.80
2018-05-06T21:57:11.339Z,18.80
2018-05-06T21:59:39.534Z,18.80
2018-05-06T22:02:07.757Z,18.70
2018-05-06T22:04:35.971Z,18.70
2018-05-06T22:07:05.682Z,18.60
2018-05-06T22:09:33.858Z,18.60
2018-05-06T22:12:02.164Z,18.60
2018-05-06T22:14:31.118Z,18.40
2018-05-06T22:16:59.287Z,18.30
2018-05-06T22:19:27.474Z,18.30
2018-05-06T22:21:55.682Z,18.20
2018-05-06T22:24:23.902Z,18.10
2018-05-06T22:26:52.066Z,18.00
2018-05-06T22:29:20.273Z,17.90
2018-05-06T22:31:48.514Z,17.70
2018-05-06T22:34:16.778Z,17.40
2018-05-06T22:36:45.689Z,17.10
2018-05-06T22:39:13.889Z,17.10
2018-05-06T22:41:42.153Z,16.80
2018-05-06T22:44:10.298Z,16.70
2018-05-06T22:46:38.606Z,16.90
2018-05-06T22:49:08.302Z,17.20
2018-05-06T22:51:37.314Z,17.20
2018-05-06T22:54:05.491Z,17.20
2018-05-06T22:56:34.454Z,17.20
2018-05-06T22:59:02.650Z,17.20
2018-05-06T23:01:30.900Z,17.00
2018-05-06T23:03:59.125Z,16.60
2018-05-06T23:06:28.075Z,16.60
2018-05-06T23:08:56.242Z,16.50
2018-05-06T23:11:24.515Z,16.50
2018-05-06T23:13:52.695Z,16.10
2018-05-06T23:16:20.948Z,16.00
2018-05-06T23:18:49.874Z,15.70
2018-05-06T23:21:18.127Z,15.70
2018-05-06T23:23:46.372Z,15.70
2018-05-06T23:26:14.618Z,15.60
2018-05-06T23:28:44.314Z,15.50
2018-05-06T23:31:12.522Z,15.50
2018-05-06T23:33:41.494Z,15.20
2018-05-06T23:36:09.691Z,15.10
2018-05-06T23:38:38.638Z,15.00
2018-05-06T23:41:06.925Z,15.00
2018-05-06T23:43:35.090Z,14.70
2018-05-06T23:46:03.274Z,14.90
2018-05-06T23:48:31.445Z,15.00
2018-05-06T23:50:59.967Z,14.80
2018-05-06T23:53:28.907Z,14.60
2018-05-06T23:55:57.105Z,14.70
2018-05-06T23:58:25.271Z,14.60
